In Rescue
 
Open Full Screen Window  High Contrast Mode
Wind Gusting 00 knots
15
November 29, 2022 8:07 AM CST
Weather Information
Wind Direction
  290 °
Wind Speed
  15 kt (17 mph)
Wind Gust
  00 kt (0 mph)
Altimeter
29.73 in
Visibility
10 SM
Temperature
-06° C
21° F
Dewpoint
-11° C
12° F
Humidity
68%
1hr Rain Fall
00.00 in.
24hr Rain Fall
00.00 in.
Sky Condition
Broken @ 8,000 ft
VFR

METAR KGHW 291407Z AUTO 29015KT 10SM BKN080 M06/M11 A2973 RMK AO2

FAA Disclaimer: The data displayed is for advisory purposes only and is not to be used for flight planning or operations.